createdAt,value
2019-01-29T00:00:49.274Z,6.15
2019-01-29T00:03:38.583Z,6.67
2019-01-29T00:06:27.447Z,3.37
2019-01-29T00:09:16.908Z,5.50
2019-01-29T00:11:47.004Z,4.83
2019-01-29T00:14:36.016Z,5.60
2019-01-29T00:17:24.888Z,4.80
2019-01-29T00:20:13.927Z,7.58
2019-01-29T00:23:02.820Z,5.58
2019-01-29T00:25:51.418Z,5.53
2019-01-29T00:28:40.803Z,8.58
2019-01-29T00:31:29.138Z,4.55
2019-01-29T00:37:13.742Z,8.38
2019-01-29T00:54:48.108Z,7.97
2019-01-29T00:57:29.536Z,12.90
2019-01-29T01:00:10.957Z,13.15
2019-01-29T01:05:40.795Z,11.90
2019-01-29T01:31:18.333Z,8.15
2019-01-29T01:39:33.758Z,10.20
2019-01-29T01:45:03.720Z,8.13
2019-01-29T01:47:44.754Z,6.17
2019-01-29T01:50:25.480Z,11.30
2019-01-29T01:53:07.705Z,8.35
2019-01-29T02:01:29.426Z,8.70
2019-01-29T02:07:02.144Z,10.20
2019-01-29T02:09:51.155Z,10.35
2019-01-29T02:15:35.857Z,11.80
2019-01-29T02:30:08.565Z,13.78
2019-01-29T02:38:29.600Z,7.30
2019-01-29T02:41:10.461Z,7.80
2019-01-29T02:43:51.987Z,6.80
2019-01-29T02:46:33.143Z,7.28
2019-01-29T02:49:14.762Z,5.85
2019-01-29T02:51:56.160Z,6.28
2019-01-29T02:54:37.529Z,10.95
2019-01-29T03:00:07.977Z,7.90
2019-01-29T03:02:49.536Z,8.45
2019-01-29T03:05:30.844Z,9.78
2019-01-29T03:08:12.644Z,7.87
2019-01-29T03:10:54.080Z,9.23
2019-01-29T03:13:36.078Z,8.85
2019-01-29T03:16:17.780Z,13.22
2019-01-29T03:18:59.616Z,10.00
2019-01-29T03:24:40.142Z,5.37
2019-01-29T03:27:21.452Z,8.80
2019-01-29T03:30:03.325Z,7.17
2019-01-29T03:32:45.296Z,6.22
2019-01-29T03:35:26.414Z,5.37
2019-01-29T03:38:08.202Z,4.53
2019-01-29T03:40:49.655Z,6.65
2019-01-29T03:43:31.063Z,6.87
2019-01-29T03:46:12.316Z,9.05
2019-01-29T03:48:54.109Z,6.22
2019-01-29T03:51:35.648Z,9.20
2019-01-29T03:54:17.098Z,7.67
2019-01-29T03:56:58.485Z,7.37
2019-01-29T03:59:39.921Z,12.30
2019-01-29T04:02:21.187Z,6.62
2019-01-29T04:05:03.279Z,9.30
2019-01-29T04:07:45.064Z,9.43
2019-01-29T04:10:26.225Z,8.25
2019-01-29T04:13:06.935Z,19.92
2019-01-29T04:15:48.236Z,10.55
2019-01-29T04:18:30.067Z,9.78
2019-01-29T04:21:11.475Z,16.37
2019-01-29T04:23:53.161Z,8.70
2019-01-29T04:26:34.743Z,8.95
2019-01-29T04:29:15.925Z,9.30
2019-01-29T04:31:57.369Z,10.45
2019-01-29T04:34:38.524Z,11.40
2019-01-29T04:37:19.851Z,14.25
2019-01-29T04:40:01.574Z,10.23
2019-01-29T04:42:42.651Z,11.57
2019-01-29T04:45:24.014Z,10.43
2019-01-29T04:47:53.856Z,12.23
2019-01-29T04:50:42.615Z,12.47
2019-01-29T04:53:31.919Z,11.40
2019-01-29T04:56:21.326Z,9.60
2019-01-29T04:59:10.197Z,7.75
2019-01-29T05:01:59.124Z,9.70
2019-01-29T05:04:48.337Z,14.00
2019-01-29T05:07:36.861Z,12.93
2019-01-29T05:10:25.760Z,16.73
2019-01-29T05:12:55.314Z,17.23
2019-01-29T05:15:44.203Z,11.97
2019-01-29T05:18:33.178Z,9.23
2019-01-29T05:21:22.216Z,10.32
2019-01-29T05:27:06.856Z,18.90
2019-01-29T05:29:55.716Z,14.00
2019-01-29T05:32:44.295Z,21.30
2019-01-29T05:35:32.829Z,11.68
2019-01-29T05:38:21.728Z,12.28
2019-01-29T05:41:10.640Z,13.88
2019-01-29T05:43:59.359Z,11.28
2019-01-29T05:46:48.263Z,17.80
2019-01-29T05:49:37.469Z,9.73
2019-01-29T05:52:26.059Z,13.60
2019-01-29T05:55:15.253Z,17.85
2019-01-29T05:58:04.161Z,12.47
2019-01-29T06:00:52.570Z,13.88
2019-01-29T06:03:40.892Z,16.67
2019-01-29T06:09:25.660Z,12.40
2019-01-29T06:15:11.500Z,13.30
2019-01-29T06:17:59.782Z,23.50
2019-01-29T06:20:48.808Z,14.98
2019-01-29T06:23:37.691Z,11.33
2019-01-29T06:26:26.857Z,15.43
2019-01-29T06:29:15.748Z,11.08
2019-01-29T06:32:04.377Z,10.95
2019-01-29T06:34:52.899Z,19.37
2019-01-29T06:37:42.016Z,17.45
2019-01-29T06:40:30.830Z,12.37
2019-01-29T06:43:11.696Z,11.63
2019-01-29T06:48:49.304Z,16.05
2019-01-29T06:51:31.147Z,10.68
2019-01-29T06:54:12.580Z,12.50
2019-01-29T06:56:54.004Z,10.30
2019-01-29T06:59:35.043Z,14.07
2019-01-29T07:02:16.592Z,13.13
2019-01-29T07:04:57.669Z,14.10
2019-01-29T07:07:38.889Z,12.45
2019-01-29T07:10:20.005Z,11.83
2019-01-29T07:13:00.978Z,19.87
2019-01-29T07:18:48.944Z,9.23
2019-01-29T07:21:30.085Z,12.80
2019-01-29T07:24:11.527Z,16.65
2019-01-29T07:26:41.796Z,12.05
2019-01-29T07:29:31.175Z,14.95
2019-01-29T07:32:20.072Z,16.12
2019-01-29T07:35:09.019Z,14.87
2019-01-29T07:37:39.659Z,19.82
2019-01-29T07:40:10.092Z,13.85
2019-01-29T07:42:59.422Z,12.53
2019-01-29T07:45:47.935Z,24.35
2019-01-29T07:48:36.852Z,22.55
2019-01-29T07:51:25.954Z,15.70
2019-01-29T07:54:06.906Z,23.15
2019-01-29T07:56:47.971Z,14.98
2019-01-29T07:59:33.163Z,15.13
2019-01-29T08:02:11.607Z,13.38
2019-01-29T08:04:52.819Z,10.08
2019-01-29T08:07:34.687Z,12.07
2019-01-29T08:10:16.344Z,11.57
2019-01-29T08:12:57.414Z,18.05
2019-01-29T08:15:38.688Z,17.62
2019-01-29T08:18:20.628Z,15.35
2019-01-29T08:21:01.878Z,15.95
2019-01-29T08:23:43.044Z,10.28
2019-01-29T08:26:24.706Z,14.47
2019-01-29T08:29:06.815Z,20.32
2019-01-29T08:31:48.407Z,22.37
2019-01-29T08:34:29.739Z,16.12
2019-01-29T08:37:11.319Z,15.68
2019-01-29T08:39:53.202Z,15.35
2019-01-29T08:42:34.123Z,17.60
2019-01-29T08:45:24.502Z,17.87
2019-01-29T08:48:13.380Z,21.35
2019-01-29T08:50:43.788Z,12.85
2019-01-29T08:53:32.715Z,16.82
2019-01-29T08:56:21.523Z,13.85
2019-01-29T08:59:10.831Z,15.53
2019-01-29T09:01:59.648Z,12.95
2019-01-29T09:04:48.231Z,15.25
2019-01-29T09:07:37.196Z,13.60
2019-01-29T09:10:25.760Z,13.15
2019-01-29T09:13:14.675Z,17.80
2019-01-29T09:16:03.451Z,13.83
2019-01-29T09:18:44.294Z,18.90
2019-01-29T09:21:25.987Z,18.90
2019-01-29T09:24:07.634Z,17.30
2019-01-29T09:26:49.539Z,20.48
2019-01-29T09:29:30.573Z,19.05
2019-01-29T09:32:11.851Z,23.57
2019-01-29T09:34:53.045Z,23.42
2019-01-29T09:37:33.835Z,22.75
2019-01-29T09:40:14.912Z,18.98
2019-01-29T09:42:56.019Z,17.82
2019-01-29T09:45:37.667Z,18.35
2019-01-29T09:48:18.700Z,14.93
2019-01-29T09:51:00.070Z,20.77
2019-01-29T09:53:41.343Z,13.80
2019-01-29T09:56:21.899Z,20.05
2019-01-29T09:59:03.462Z,13.88
2019-01-29T10:01:44.249Z,19.17
2019-01-29T10:04:25.315Z,17.10
2019-01-29T10:06:55.251Z,25.10
2019-01-29T10:09:44.032Z,18.25
2019-01-29T10:12:32.834Z,21.60
2019-01-29T10:18:37.028Z,21.87
2019-01-29T10:21:25.868Z,16.17
2019-01-29T10:24:14.979Z,20.20
2019-01-29T10:27:04.132Z,24.20
2019-01-29T10:29:53.280Z,14.50
2019-01-29T10:32:42.104Z,14.80
2019-01-29T10:35:31.051Z,12.40
2019-01-29T10:38:20.452Z,16.23
2019-01-29T10:40:50.183Z,15.98
2019-01-29T10:43:39.360Z,14.98
2019-01-29T10:46:20.753Z,16.27
2019-01-29T10:49:02.346Z,19.65
2019-01-29T10:51:43.740Z,15.18
2019-01-29T10:54:25.069Z,14.20
2019-01-29T10:57:05.979Z,16.37
2019-01-29T10:59:46.690Z,16.65
2019-01-29T11:02:28.007Z,13.10
2019-01-29T11:05:09.590Z,13.58
2019-01-29T11:07:50.755Z,14.40
2019-01-29T11:10:31.908Z,15.05
2019-01-29T11:13:01.409Z,13.80
2019-01-29T11:15:50.425Z,17.50
2019-01-29T11:18:39.317Z,12.10
2019-01-29T11:21:09.031Z,13.98
2019-01-29T11:23:57.929Z,14.90
2019-01-29T11:26:27.778Z,8.93
2019-01-29T11:32:11.028Z,11.48
2019-01-29T11:35:00.188Z,12.90
2019-01-29T11:37:48.712Z,14.30
2019-01-29T11:40:37.016Z,15.55
2019-01-29T11:43:32.263Z,17.27
2019-01-29T11:46:13.389Z,22.32
2019-01-29T11:48:54.597Z,19.02
2019-01-29T11:51:35.659Z,10.93
2019-01-29T11:54:17.624Z,12.30
2019-01-29T11:56:59.048Z,12.03
2019-01-29T11:59:40.947Z,16.27
2019-01-29T12:02:28.274Z,14.28
2019-01-29T12:05:05.275Z,11.12
2019-01-29T12:07:46.624Z,12.53
2019-01-29T12:10:28.516Z,9.48
2019-01-29T12:13:09.761Z,7.67
2019-01-29T12:15:51.041Z,12.93
2019-01-29T12:18:32.557Z,8.00
2019-01-29T12:21:02.408Z,5.73
2019-01-29T12:23:51.194Z,6.90
2019-01-29T12:26:39.935Z,6.60
2019-01-29T12:29:28.692Z,10.37
2019-01-29T12:32:17.904Z,6.63
2019-01-29T12:35:07.536Z,6.90
2019-01-29T12:37:56.479Z,13.00
2019-01-29T12:40:45.327Z,6.13
2019-01-29T12:43:34.559Z,12.60
2019-01-29T12:46:23.755Z,12.70
2019-01-29T12:49:04.206Z,11.60
2019-01-29T12:51:51.670Z,6.63
2019-01-29T12:54:33.400Z,4.57
2019-01-29T12:57:15.469Z,12.63
2019-01-29T12:59:56.709Z,4.57
2019-01-29T13:02:38.253Z,6.40
2019-01-29T13:05:19.776Z,6.30
2019-01-29T13:08:01.451Z,13.43
2019-01-29T13:10:42.932Z,6.50
2019-01-29T13:13:24.103Z,7.57
2019-01-29T13:16:06.038Z,4.50
2019-01-29T13:18:47.076Z,8.33
2019-01-29T13:21:27.778Z,4.33
2019-01-29T13:24:09.072Z,7.10
2019-01-29T13:26:50.010Z,7.03
2019-01-29T13:29:31.420Z,5.17
2019-01-29T13:32:12.731Z,11.97
2019-01-29T13:34:43.156Z,8.40
2019-01-29T13:37:31.923Z,4.20
2019-01-29T13:40:20.869Z,5.08
2019-01-29T13:43:09.784Z,4.50
2019-01-29T13:45:58.548Z,6.00
2019-01-29T13:48:47.407Z,4.65
2019-01-29T13:51:36.290Z,5.17
2019-01-29T13:54:25.487Z,4.95
2019-01-29T13:57:14.257Z,6.50
2019-01-29T14:00:03.653Z,4.47
2019-01-29T14:02:52.423Z,3.77
2019-01-29T14:05:41.334Z,4.30
2019-01-29T14:08:30.151Z,3.40
2019-01-29T14:11:18.647Z,4.12
2019-01-29T14:14:07.752Z,3.83
2019-01-29T14:16:56.932Z,3.27
2019-01-29T14:19:38.125Z,3.08
2019-01-29T14:22:20.136Z,4.70
2019-01-29T14:25:01.568Z,6.50
2019-01-29T14:27:42.777Z,6.47
2019-01-29T14:30:23.949Z,3.33
2019-01-29T14:33:04.966Z,4.10
2019-01-29T14:35:46.243Z,4.53
2019-01-29T14:38:56.884Z,2.55
2019-01-29T14:41:45.753Z,6.00
2019-01-29T14:44:53.671Z,5.45
2019-01-29T14:47:34.977Z,3.95
2019-01-29T14:52:59.559Z,6.25
2019-01-29T14:55:40.671Z,3.75
2019-01-29T14:58:22.303Z,4.90
2019-01-29T15:01:03.695Z,4.03
2019-01-29T15:03:45.632Z,5.35
2019-01-29T15:06:32.701Z,4.55
2019-01-29T15:09:10.994Z,10.38
2019-01-29T15:11:52.913Z,5.45
2019-01-29T15:14:33.872Z,3.65
2019-01-29T15:17:14.829Z,4.30
2019-01-29T15:19:55.595Z,4.22
2019-01-29T15:22:37.237Z,3.30
2019-01-29T15:25:18.254Z,2.98
2019-01-29T15:27:59.432Z,3.67
2019-01-29T15:30:40.371Z,5.65
2019-01-29T15:33:21.843Z,3.05
2019-01-29T15:36:03.507Z,4.20
2019-01-29T15:38:44.790Z,3.95
2019-01-29T15:41:26.428Z,4.53
2019-01-29T15:44:07.187Z,4.90
2019-01-29T15:46:48.306Z,5.90
2019-01-29T15:49:29.897Z,3.20
2019-01-29T15:52:11.327Z,6.28
2019-01-29T15:54:52.961Z,4.05
2019-01-29T15:57:34.088Z,5.53
2019-01-29T16:00:15.822Z,4.92
2019-01-29T16:02:57.659Z,5.25
2019-01-29T16:05:39.052Z,4.53
2019-01-29T16:08:20.914Z,4.22
2019-01-29T16:11:02.543Z,3.45
2019-01-29T16:13:43.190Z,5.92
2019-01-29T16:16:24.855Z,4.47
2019-01-29T16:19:06.611Z,7.97
2019-01-29T16:21:48.434Z,3.17
2019-01-29T16:24:30.181Z,3.40
2019-01-29T16:27:11.411Z,3.60
2019-01-29T16:29:53.097Z,4.03
2019-01-29T16:32:34.333Z,4.20
2019-01-29T16:35:15.641Z,5.00
2019-01-29T16:37:56.584Z,4.35
2019-01-29T16:40:38.180Z,2.40
2019-01-29T16:43:19.372Z,3.15
2019-01-29T16:46:01.046Z,3.77
2019-01-29T16:48:41.878Z,3.33
2019-01-29T16:51:22.743Z,3.45
2019-01-29T16:54:04.369Z,2.90
2019-01-29T16:56:45.199Z,3.70
2019-01-29T16:59:26.019Z,5.45
2019-01-29T17:02:06.945Z,2.80
2019-01-29T17:04:48.052Z,3.95
2019-01-29T17:07:29.932Z,3.85
2019-01-29T17:10:11.593Z,4.65
2019-01-29T17:12:53.494Z,3.55
2019-01-29T17:15:34.789Z,3.27
2019-01-29T17:18:15.796Z,5.03
2019-01-29T17:20:57.153Z,4.08
2019-01-29T17:23:38.712Z,4.47
2019-01-29T17:26:19.950Z,5.22
2019-01-29T17:29:01.127Z,4.05
2019-01-29T17:31:42.145Z,5.90
2019-01-29T17:34:23.760Z,6.92
2019-01-29T17:37:05.490Z,5.40
2019-01-29T17:39:46.823Z,8.70
2019-01-29T17:42:28.392Z,8.28
2019-01-29T17:45:09.668Z,8.80
2019-01-29T17:47:51.554Z,18.52
2019-01-29T17:50:33.225Z,8.45
2019-01-29T17:53:14.127Z,6.40
2019-01-29T17:55:55.074Z,8.80
2019-01-29T17:58:37.297Z,8.05
2019-01-29T18:01:18.224Z,13.10
2019-01-29T18:03:58.987Z,8.03
2019-01-29T18:06:28.809Z,8.30
2019-01-29T18:09:18.394Z,8.43
2019-01-29T18:12:07.590Z,6.42
2019-01-29T18:14:56.322Z,10.50
2019-01-29T18:17:45.147Z,8.50
2019-01-29T18:20:34.365Z,8.18
2019-01-29T18:23:23.541Z,8.38
2019-01-29T18:26:12.584Z,15.93
2019-01-29T18:28:43.174Z,18.25
2019-01-29T18:31:13.629Z,13.72
2019-01-29T18:34:02.849Z,7.45
2019-01-29T18:36:51.447Z,8.10
2019-01-29T18:39:40.555Z,9.13
2019-01-29T18:42:29.186Z,7.67
2019-01-29T18:45:18.562Z,9.73
2019-01-29T18:48:07.492Z,11.38
2019-01-29T18:50:56.699Z,13.18
2019-01-29T18:53:45.287Z,10.55
2019-01-29T18:56:34.292Z,12.40
2019-01-29T18:59:15.512Z,11.85
2019-01-29T19:01:56.571Z,13.38
2019-01-29T19:04:26.105Z,9.20
2019-01-29T19:07:15.048Z,13.20
2019-01-29T19:10:03.934Z,9.35
2019-01-29T19:12:52.833Z,17.60
2019-01-29T19:15:41.788Z,17.40
2019-01-29T19:18:30.692Z,14.75
2019-01-29T19:21:19.585Z,14.47
2019-01-29T19:24:08.456Z,10.72
2019-01-29T19:26:57.807Z,8.15
2019-01-29T19:29:47.028Z,12.47
2019-01-29T19:32:35.952Z,11.65
2019-01-29T19:35:24.735Z,13.20
2019-01-29T19:38:13.648Z,12.13
2019-01-29T19:41:03.056Z,13.48
2019-01-29T19:43:52.035Z,11.60
2019-01-29T19:46:41.414Z,14.70
2019-01-29T19:49:30.783Z,13.20
2019-01-29T19:52:19.588Z,19.12
2019-01-29T19:55:07.875Z,14.00
2019-01-29T19:57:49.660Z,13.25
2019-01-29T20:03:14.216Z,13.35
2019-01-29T20:05:54.857Z,12.90
2019-01-29T20:08:36.609Z,16.70
2019-01-29T20:11:17.660Z,17.87
2019-01-29T20:13:59.298Z,13.00
2019-01-29T20:16:40.660Z,14.23
2019-01-29T20:19:22.030Z,13.30
2019-01-29T20:22:03.532Z,14.23
2019-01-29T20:24:44.682Z,12.85
2019-01-29T20:27:26.443Z,11.38
2019-01-29T20:30:07.692Z,13.28
2019-01-29T20:32:53.339Z,22.95
2019-01-29T20:35:32.822Z,16.67
2019-01-29T20:38:13.945Z,13.05
2019-01-29T20:40:55.381Z,19.70
2019-01-29T20:43:36.967Z,14.45
2019-01-29T20:46:18.396Z,12.60
2019-01-29T20:49:00.253Z,16.67
2019-01-29T20:51:41.767Z,12.65
2019-01-29T20:54:22.591Z,10.35
2019-01-29T20:57:03.428Z,12.28
2019-01-29T20:59:44.633Z,7.45
2019-01-29T21:02:26.141Z,12.20
2019-01-29T21:05:07.048Z,10.85
2019-01-29T21:07:48.770Z,12.95
2019-01-29T21:10:30.096Z,15.55
2019-01-29T21:13:11.278Z,11.10
2019-01-29T21:15:52.956Z,12.73
2019-01-29T21:18:35.805Z,11.73
2019-01-29T21:21:17.344Z,8.50
2019-01-29T21:23:58.814Z,10.25
2019-01-29T21:26:29.757Z,15.85
2019-01-29T21:29:19.222Z,18.48
2019-01-29T21:34:44.779Z,8.58
2019-01-29T21:37:25.815Z,9.80
2019-01-29T21:39:56.119Z,12.40
2019-01-29T21:42:45.270Z,7.58
2019-01-29T21:45:34.809Z,8.10
2019-01-29T21:48:16.620Z,10.03
2019-01-29T21:50:47.459Z,6.58
2019-01-29T21:53:37.083Z,9.20
2019-01-29T21:56:26.717Z,12.00
2019-01-29T21:59:15.525Z,10.45
2019-01-29T22:02:04.787Z,9.75
2019-01-29T22:04:53.745Z,9.78
2019-01-29T22:07:42.940Z,6.42
2019-01-29T22:10:32.163Z,8.53
2019-01-29T22:13:21.220Z,9.00
2019-01-29T22:16:10.836Z,8.78
2019-01-29T22:19:01.731Z,8.33
2019-01-29T22:21:50.048Z,12.15
2019-01-29T22:24:39.656Z,13.00
2019-01-29T22:27:29.326Z,11.70
2019-01-29T22:30:22.413Z,11.22
2019-01-29T22:33:04.481Z,8.00
2019-01-29T22:35:45.980Z,8.05
2019-01-29T22:38:27.752Z,13.80
2019-01-29T22:40:57.941Z,9.65
2019-01-29T22:52:24.423Z,12.55
2019-01-29T22:55:13.559Z,13.20
2019-01-29T22:58:02.691Z,12.47
2019-01-29T23:01:10.653Z,11.05
2019-01-29T23:04:06.625Z,8.95
2019-01-29T23:07:14.148Z,9.45
2019-01-29T23:10:03.675Z,9.20
2019-01-29T23:12:52.315Z,12.00
2019-01-29T23:15:41.587Z,11.10
2019-01-29T23:18:30.379Z,13.40
2019-01-29T23:21:19.517Z,8.80
2019-01-29T23:24:08.625Z,12.82
2019-01-29T23:26:57.763Z,11.73
2019-01-29T23:29:43.719Z,13.48
2019-01-29T23:32:22.017Z,13.43
2019-01-29T23:35:03.519Z,13.78
2019-01-29T23:37:33.723Z,11.05
2019-01-29T23:40:22.470Z,15.55
2019-01-29T23:43:11.028Z,11.22
2019-01-29T23:45:59.891Z,11.05
2019-01-29T23:48:48.099Z,17.05
2019-01-29T23:51:30.179Z,12.68
2019-01-29T23:54:11.435Z,13.03
2019-01-29T23:56:52.981Z,10.45
2019-01-29T23:59:23.100Z,12.73
